Goshen, New York
Current Conditions -  °F | °C
As of 11:54 AM on Wednesday 26 Nov 2014 (Local Time) from KMGJ Reporting Station
Heavy Snow Heavy Snow  
Wind Chill: 23°   Ceiling: 600
Heat Index: 33°   Visibility: 0.25mi
Dew Point: 31°   Wind: 15mph
Humidity: 92%   Direction: 30°NNE
Pressure: 30.04"   Gusts: NA
Location:  41.41°N, 74.32°W
Report Text: KMGJ 261654Z AUTO 03013KT 1/4SM +SN FG VV006 01/M01 A3004 RMK AO2 SLP175 P0011 T00061006 TSNO
Loading
Personal Weather Stations






























Interactive Weather Map New forecast layout! Learn more

10-Day Weather Forecast

Advertisements
Track Severe Weather on mobile